Time;durP1;ratioP1;P1;durP2;ratioP2;P2;SDS_P1;SDS_P2;PMS_P1;PMS_P2;Temp;Humidity;BMP_temperature;BMP_pressure;BME280_temperature;BME280_humidity;BME280_pressure;Samples;Min_cycle;Max_cycle;Signal;HPM_P1;HPM_P2
2021/04/15 00:02:03;;;;;;;12.27;5.20;;;4.70;99.90;;;;;;5049614;28;20634;-76
2021/04/15 00:04:29;;;;;;;13.13;5.37;;;4.70;99.90;;;;;;5050084;28;20693;-76
2021/04/15 00:06:55;;;;;;;12.13;4.87;;;4.70;99.90;;;;;;5049093;28;20184;-76
2021/04/15 00:09:23;;;;;;;12.67;5.73;;;4.60;99.90;;;;;;5051554;28;20538;-76
2021/04/15 00:11:49;;;;;;;13.33;5.20;;;4.60;99.90;;;;;;5047727;28;20188;-76
2021/04/15 00:14:19;;;;;;;15.80;5.60;;;4.80;99.90;;;;;;5047810;28;20556;-76
2021/04/15 00:16:46;;;;;;;11.27;4.80;;;5.00;99.90;;;;;;5049158;28;20206;-76
2021/04/15 00:19:15;;;;;;;15.47;5.43;;;5.00;99.90;;;;;;5050357;28;20187;-76
2021/04/15 00:21:41;;;;;;;16.90;5.70;;;5.00;99.90;;;;;;5048023;28;20220;-77
2021/04/15 00:24:07;;;;;;;13.80;5.40;;;5.10;99.90;;;;;;5048506;28;20235;-77
2021/04/15 00:26:33;;;;;;;12.93;5.50;;;5.10;99.90;;;;;;5051411;28;20593;-76
2021/04/15 00:28:59;;;;;;;11.53;5.13;;;5.10;99.90;;;;;;5047553;28;20638;-76
2021/04/15 00:31:27;;;;;;;12.03;5.03;;;5.00;99.90;;;;;;5062794;28;20246;-76
2021/04/15 00:33:54;;;;;;;10.57;5.23;;;4.70;99.90;;;;;;5047465;28;20233;-76
2021/04/15 00:36:20;;;;;;;14.97;5.47;;;4.60;99.90;;;;;;5048145;28;20205;-76
2021/04/15 00:38:47;;;;;;;13.30;5.50;;;4.60;99.90;;;;;;5048951;28;20180;-76
2021/04/15 00:41:13;;;;;;;11.27;5.43;;;4.70;99.90;;;;;;5047185;28;20185;-76
2021/04/15 00:43:43;;;;;;;12.43;5.47;;;4.80;99.90;;;;;;5050818;28;20638;-75
2021/04/15 00:46:50;;;;;;;11.43;5.33;;;4.70;99.90;;;;;;5049134;28;20202;-75
2021/04/15 00:49:33;;;;;;;10.90;5.20;;;4.70;99.90;;;;;;5040175;28;20245;-75
2021/04/15 00:52:03;;;;;;;10.17;5.07;;;4.60;99.90;;;;;;5046513;28;20177;-75
2021/04/15 00:54:49;;;;;;;11.83;5.20;;;4.70;99.90;;;;;;5045188;28;20194;-75
2021/04/15 00:57:27;;;;;;;12.40;5.63;;;4.70;99.90;;;;;;5047300;28;20400;-74
2021/04/15 00:59:55;;;;;;;11.00;4.93;;;4.80;99.90;;;;;;5047701;28;20279;-76
2021/04/15 01:02:22;;;;;;;13.63;5.40;;;4.80;99.90;;;;;;5048025;28;20186;-75
2021/04/15 01:04:58;;;;;;;10.10;5.03;;;4.90;99.90;;;;;;5048346;28;20216;-76
2021/04/15 01:07:25;;;;;;;13.83;5.73;;;4.90;99.90;;;;;;5049879;28;20519;-75
2021/04/15 01:09:52;;;;;;;14.90;5.63;;;4.90;99.90;;;;;;5049427;28;20216;-76
2021/04/15 01:12:38;;;;;;;13.50;5.13;;;4.90;99.90;;;;;;5048576;28;20195;-75
2021/04/15 01:15:16;;;;;;;10.47;5.00;;;4.80;99.90;;;;;;5048869;28;20180;-75
2021/04/15 01:17:55;;;;;;;14.40;5.80;;;4.80;99.90;;;;;;5048618;28;20654;-75
2021/04/15 01:20:23;;;;;;;14.20;5.27;;;4.80;99.90;;;;;;5043912;28;20196;-76
2021/04/15 01:23:25;;;;;;;14.93;5.17;;;4.70;99.90;;;;;;5049037;28;20193;-76
2021/04/15 01:26:27;;;;;;;13.03;5.20;;;4.70;99.90;;;;;;5047082;28;20627;-75
2021/04/15 01:29:21;;;;;;;12.87;5.20;;;4.80;99.90;;;;;;5048536;28;20662;-75
2021/04/15 01:32:14;;;;;;;14.10;5.50;;;4.80;99.90;;;;;;5059518;28;20271;-76
2021/04/15 01:35:12;;;;;;;13.07;4.70;;;4.80;99.90;;;;;;5048680;28;20254;-75
2021/04/15 01:38:04;;;;;;;10.93;5.20;;;4.80;99.90;;;;;;5048851;28;20185;-76
2021/04/15 01:40:55;;;;;;;13.17;5.53;;;4.80;99.90;;;;;;5047365;28;20200;-75
2021/04/15 01:43:29;;;;;;;14.63;5.60;;;4.80;99.90;;;;;;5050962;28;20199;-75
2021/04/15 01:45:57;;;;;;;11.93;4.80;;;4.80;99.90;;;;;;5051432;28;20218;-76
2021/04/15 01:48:31;;;;;;;11.53;5.30;;;4.70;99.90;;;;;;5048971;28;20184;-76
2021/04/15 01:51:08;;;;;;;15.33;5.27;;;4.70;99.90;;;;;;5051924;28;20664;-75
2021/04/15 01:53:46;;;;;;;13.93;5.40;;;4.80;99.90;;;;;;5064688;28;20199;-76
2021/04/15 01:56:24;;;;;;;12.50;5.23;;;4.90;99.90;;;;;;5050997;28;20229;-76
2021/04/15 01:59:07;;;;;;;15.60;5.23;;;4.90;99.90;;;;;;5080164;28;20182;-75
2021/04/15 02:01:38;;;;;;;11.77;4.87;;;4.80;99.90;;;;;;5048175;28;20297;-75
2021/04/15 02:04:08;;;;;;;14.03;5.03;;;4.70;99.90;;;;;;5048400;28;20196;-76
2021/04/15 02:06:36;;;;;;;11.90;4.87;;;4.60;99.90;;;;;;5050734;28;20179;-76
2021/04/15 02:09:10;;;;;;;14.87;5.20;;;4.50;99.90;;;;;;5052151;28;20199;-75
2021/04/15 02:11:53;;;;;;;10.90;5.00;;;4.50;99.90;;;;;;5049778;28;20705;-75
2021/04/15 02:14:24;;;;;;;15.03;5.00;;;4.40;99.90;;;;;;5052013;28;20183;-76
2021/04/15 02:16:53;;;;;;;13.27;5.17;;;4.40;99.90;;;;;;5051375;28;20234;-75
2021/04/15 02:19:47;;;;;;;15.37;4.87;;;4.40;99.90;;;;;;5053229;28;20243;-76
2021/04/15 02:22:34;;;;;;;12.33;5.13;;;4.30;99.90;;;;;;5047398;28;20197;-75
2021/04/15 02:25:08;;;;;;;10.37;4.77;;;4.20;99.90;;;;;;5050617;28;20212;-75
2021/04/15 02:28:02;;;;;;;15.27;5.50;;;4.20;99.90;;;;;;5052209;28;20183;-75
2021/04/15 02:31:00;;;;;;;11.53;4.93;;;4.20;99.90;;;;;;5048986;28;20276;-75
2021/04/15 02:33:31;;;;;;;11.83;4.83;;;4.30;99.90;;;;;;5046500;28;20721;-75
2021/04/15 02:36:03;;;;;;;12.63;4.77;;;4.30;99.90;;;;;;5063182;28;20197;-75
2021/04/15 02:38:34;;;;;;;12.00;4.90;;;4.20;99.90;;;;;;5050669;28;20176;-75
2021/04/15 02:41:04;;;;;;;13.47;4.93;;;4.30;99.90;;;;;;5049763;28;20322;-75
2021/04/15 02:43:49;;;;;;;11.93;5.13;;;4.20;99.90;;;;;;5051002;28;20301;-75
2021/04/15 02:46:23;;;;;;;10.83;4.57;;;4.10;99.90;;;;;;5049278;28;20194;-75
2021/04/15 02:48:50;;;;;;;11.47;5.13;;;4.10;99.90;;;;;;5050622;28;20576;-75
2021/04/15 02:51:33;;;;;;;9.83;4.70;;;4.10;99.90;;;;;;5051623;28;20187;-75
2021/04/15 02:54:25;;;;;;;11.53;4.83;;;4.10;99.90;;;;;;5048557;28;20240;-75
2021/04/15 02:57:17;;;;;;;11.10;5.10;;;4.10;99.90;;;;;;5075782;28;20555;-75
2021/04/15 03:00:10;;;;;;;12.37;4.90;;;4.00;99.90;;;;;;5050811;28;20587;-75
2021/04/15 03:02:43;;;;;;;13.60;4.83;;;4.00;99.90;;;;;;5051793;28;20230;-74
2021/04/15 03:05:26;;;;;;;12.00;4.97;;;4.00;99.90;;;;;;5047321;28;20737;-75
2021/04/15 03:07:57;;;;;;;13.30;5.50;;;4.00;99.90;;;;;;5051617;28;20652;-75
2021/04/15 03:10:31;;;;;;;13.20;5.00;;;4.00;99.90;;;;;;5051110;28;20207;-76
2021/04/15 03:13:08;;;;;;;12.93;5.30;;;4.10;99.90;;;;;;5048641;28;20203;-74
2021/04/15 03:15:40;;;;;;;13.40;4.90;;;4.00;99.90;;;;;;5044986;28;20717;-75
2021/04/15 03:18:24;;;;;;;13.77;4.83;;;4.00;99.90;;;;;;5050979;28;20542;-75
2021/04/15 03:21:05;;;;;;;12.80;4.50;;;4.00;99.90;;;;;;5046619;28;20213;-74
2021/04/15 03:24:09;;;;;;;9.43;4.03;;;3.90;99.90;;;;;;5048781;28;20208;-74
2021/04/15 03:26:38;;;;;;;12.97;4.83;;;3.90;99.90;;;;;;5008150;28;20212;-75
2021/04/15 03:29:26;;;;;;;16.67;5.07;;;3.80;99.90;;;;;;5040036;28;20200;-75
2021/04/15 03:32:07;;;;;;;11.30;4.67;;;3.80;99.90;;;;;;5050500;28;20186;-74
2021/04/15 03:34:42;;;;;;;12.27;4.93;;;3.80;99.90;;;;;;5046730;28;20247;-74
2021/04/15 03:37:14;;;;;;;13.57;5.10;;;3.80;99.90;;;;;;5047898;28;20183;-74
2021/04/15 03:39:41;;;;;;;10.20;4.87;;;3.80;99.90;;;;;;5049287;28;20186;-74
2021/04/15 03:42:29;;;;;;;13.90;5.20;;;3.80;99.90;;;;;;5047523;28;20202;-74
2021/04/15 03:45:02;;;;;;;11.03;4.50;;;3.80;99.90;;;;;;5052283;28;20250;-75
2021/04/15 03:47:36;;;;;;;13.17;5.37;;;3.70;99.90;;;;;;5045443;28;20545;-75
2021/04/15 03:50:15;;;;;;;17.07;5.00;;;3.70;99.90;;;;;;5049957;28;20184;-75
2021/04/15 03:52:49;;;;;;;13.73;5.33;;;3.60;99.90;;;;;;5049557;28;20185;-75
2021/04/15 03:55:21;;;;;;;13.33;5.20;;;3.60;99.90;;;;;;5079185;28;20285;-74
2021/04/15 03:57:50;;;;;;;13.70;5.37;;;3.60;99.90;;;;;;5048923;28;20237;-74
2021/04/15 04:00:41;;;;;;;13.73;6.20;;;3.60;99.90;;;;;;5047885;28;20239;-75
2021/04/15 04:03:12;;;;;;;14.40;5.60;;;3.60;99.90;;;;;;5046887;28;20246;-74
2021/04/15 04:05:46;;;;;;;15.13;5.77;;;3.80;99.90;;;;;;5048293;28;20232;-74
2021/04/15 04:08:19;;;;;;;16.00;5.53;;;3.80;99.90;;;;;;5049783;28;20176;-75
2021/04/15 04:10:47;;;;;;;16.97;6.00;;;3.90;99.90;;;;;;5047378;28;20775;-74
2021/04/15 04:13:21;;;;;;;19.60;5.60;;;3.90;99.90;;;;;;5049390;28;20690;-75
2021/04/15 04:15:56;;;;;;;14.70;5.43;;;4.00;99.90;;;;;;5047417;28;20221;-75
2021/04/15 04:18:31;;;;;;;17.13;5.90;;;3.80;99.90;;;;;;5047221;28;20275;-76
2021/04/15 04:21:16;;;;;;;19.30;6.23;;;3.90;99.90;;;;;;5050639;28;20861;-75
2021/04/15 04:23:58;;;;;;;19.57;6.70;;;4.00;99.90;;;;;;5045762;28;20210;-75
2021/04/15 04:26:41;;;;;;;15.90;6.30;;;4.00;99.90;;;;;;5046659;28;20935;-75
2021/04/15 04:29:15;;;;;;;20.80;6.43;;;3.90;99.90;;;;;;5049370;28;20546;-75
2021/04/15 04:31:43;;;;;;;18.00;6.50;;;3.80;99.90;;;;;;5046076;28;20181;-75
2021/04/15 04:34:12;;;;;;;16.50;6.93;;;3.70;99.90;;;;;;5046474;28;20291;-75
2021/04/15 04:36:38;;;;;;;17.87;6.43;;;3.50;99.90;;;;;;5049163;28;20580;-75
2021/04/15 04:39:06;;;;;;;17.50;6.63;;;3.50;99.90;;;;;;5047980;28;20247;-75
2021/04/15 04:41:50;;;;;;;15.60;5.60;;;3.40;99.90;;;;;;5046233;28;20205;-75
2021/04/15 04:44:24;;;;;;;12.60;6.40;;;3.50;99.90;;;;;;5047983;28;20238;-75
2021/04/15 04:47:03;;;;;;;17.50;6.93;;;3.70;99.90;;;;;;5059429;28;20640;-75
2021/04/15 04:49:32;;;;;;;16.00;6.50;;;3.80;99.90;;;;;;5048573;28;20170;-75
2021/04/15 04:52:00;;;;;;;21.27;6.67;;;3.90;99.90;;;;;;5046319;28;20195;-75
2021/04/15 04:54:27;;;;;;;14.90;6.77;;;3.90;99.90;;;;;;5043974;28;20699;-74
2021/04/15 04:57:23;;;;;;;16.50;7.30;;;3.90;99.90;;;;;;5046891;28;20194;-74
2021/04/15 04:59:59;;;;;;;15.17;6.53;;;3.80;99.90;;;;;;5046947;28;20616;-74
2021/04/15 05:02:25;;;;;;;16.83;6.77;;;3.70;99.90;;;;;;5044601;28;20200;-74
2021/04/15 05:04:58;;;;;;;13.53;6.37;;;3.60;99.90;;;;;;5046260;28;20209;-74
2021/04/15 05:07:27;;;;;;;14.37;6.50;;;3.60;99.90;;;;;;5046890;28;20213;-74
2021/04/15 05:09:52;;;;;;;19.17;6.40;;;3.60;99.90;;;;;;5044194;28;20202;-74
2021/04/15 05:12:22;;;;;;;15.53;6.70;;;3.80;99.90;;;;;;5047097;28;20185;-74
2021/04/15 05:14:52;;;;;;;13.83;5.90;;;3.90;99.90;;;;;;5048639;28;20658;-75
2021/04/15 05:17:23;;;;;;;13.97;6.30;;;3.90;99.90;;;;;;5048656;28;20579;-75
2021/04/15 05:19:49;;;;;;;14.13;6.37;;;4.00;99.90;;;;;;5052942;28;20608;-74
2021/04/15 05:22:59;;;;;;;15.87;6.60;;;4.10;99.90;;;;;;5050533;28;20277;-75
2021/04/15 05:25:35;;;;;;;17.23;6.37;;;4.20;99.90;;;;;;5066425;28;20344;-74
2021/04/15 05:28:02;;;;;;;19.07;6.70;;;4.20;99.90;;;;;;5082513;28;20190;-76
2021/04/15 05:30:40;;;;;;;17.00;7.07;;;4.10;99.90;;;;;;5048013;28;20177;-75
2021/04/15 05:33:11;;;;;;;16.63;6.93;;;4.10;99.90;;;;;;5049014;28;20280;-74
2021/04/15 05:35:47;;;;;;;17.43;6.73;;;4.10;99.90;;;;;;5048497;28;20229;-74
2021/04/15 05:38:14;;;;;;;19.40;6.33;;;4.50;99.90;;;;;;5049494;28;20196;-74
2021/04/15 05:40:40;;;;;;;14.33;6.50;;;5.40;99.90;;;;;;5049428;28;20663;-74
2021/04/15 05:43:17;;;;;;;15.30;5.07;;;6.60;99.90;;;;;;5052349;28;20202;-74
2021/04/15 05:45:45;;;;;;;17.03;5.40;;;7.80;99.90;;;;;;5051617;28;20210;-84
2021/04/15 05:48:13;;;;;;;12.80;5.40;;;8.90;99.90;;;;;;5031213;28;20181;-75
2021/04/15 05:50:44;;;;;;;13.90;4.70;;;9.70;99.90;;;;;;5052321;28;20192;-74
2021/04/15 05:53:19;;;;;;;17.50;5.37;;;10.30;99.90;;;;;;5050676;28;20275;-74
2021/04/15 05:55:50;;;;;;;19.93;4.83;;;10.90;99.90;;;;;;5051739;28;20196;-75
2021/04/15 05:58:20;;;;;;;11.83;4.93;;;11.40;99.90;;;;;;5048610;28;20228;-76
2021/04/15 06:00:51;;;;;;;16.33;4.80;;;12.00;99.90;;;;;;5045759;28;20675;-75
2021/04/15 06:03:33;;;;;;;15.47;4.77;;;12.70;99.90;;;;;;5049960;28;20195;-75
2021/04/15 06:06:11;;;;;;;16.27;4.53;;;13.20;99.90;;;;;;5048913;28;20250;-75
2021/04/15 06:08:42;;;;;;;11.97;4.77;;;13.50;99.90;;;;;;5052540;28;20196;-75
2021/04/15 06:11:32;;;;;;;13.87;5.37;;;13.70;99.90;;;;;;5049539;28;20186;-75
2021/04/15 06:14:07;;;;;;;11.77;4.83;;;13.70;99.90;;;;;;5052462;28;20244;-75
2021/04/15 06:16:40;;;;;;;15.53;5.00;;;13.70;99.90;;;;;;5049963;28;20183;-75
2021/04/15 06:19:16;;;;;;;13.20;4.70;;;14.00;99.90;;;;;;5050834;28;20662;-75
2021/04/15 06:21:49;;;;;;;11.97;4.50;;;14.40;99.30;;;;;;5048483;28;20238;-75
2021/04/15 06:24:21;;;;;;;22.87;6.90;;;14.90;99.50;;;;;;5050109;28;20230;-75
2021/04/15 06:26:50;;;;;;;37.50;8.23;;;15.60;97.70;;;;;;5052248;28;20234;-75
2021/04/15 06:29:34;;;;;;;31.57;7.87;;;16.20;95.80;;;;;;5049712;28;20645;-75
2021/04/15 06:32:04;;;;;;;24.93;6.83;;;16.60;95.80;;;;;;5048918;28;20339;-75
2021/04/15 06:34:31;;;;;;;22.77;6.40;;;17.00;93.80;;;;;;5049359;28;20215;-75
2021/04/15 06:37:08;;;;;;;27.37;6.93;;;17.60;92.90;;;;;;5050007;28;20173;-75
2021/04/15 06:39:41;;;;;;;26.10;6.10;;;18.50;90.70;;;;;;5049795;28;20700;-75
2021/04/15 06:42:42;;;;;;;26.43;7.00;;;19.30;87.60;;;;;;5063670;28;20191;-75
2021/04/15 06:45:29;;;;;;;20.30;6.37;;;19.90;82.50;;;;;;5042674;28;20256;-75
2021/04/15 06:48:33;;;;;;;24.10;6.50;;;20.30;77.90;;;;;;5049313;28;20248;-75
2021/04/15 06:50:58;;;;;;;21.47;6.00;;;20.90;75.50;;;;;;5050610;28;20197;-76
2021/04/15 06:54:10;;;;;;;17.80;6.17;;;21.40;73.10;;;;;;5049039;28;20190;-75
2021/04/15 06:56:57;;;;;;;18.23;6.30;;;22.00;70.90;;;;;;5026690;28;20250;-75
2021/04/15 06:59:32;;;;;;;18.93;7.03;;;23.00;66.10;;;;;;5029760;28;20238;-75
2021/04/15 07:02:04;;;;;;;18.13;6.40;;;23.70;61.60;;;;;;5042723;28;20337;-75
2021/04/15 07:04:51;;;;;;;18.57;5.77;;;23.50;61.60;;;;;;5048934;28;20203;-75
2021/04/15 07:07:33;;;;;;;16.57;5.87;;;23.80;60.70;;;;;;5049935;28;20260;-75
2021/04/15 07:10:16;;;;;;;16.03;6.17;;;23.80;60.00;;;;;;5049385;28;20650;-75
2021/04/15 07:12:59;;;;;;;14.57;5.40;;;23.80;59.70;;;;;;5048488;28;20254;-75
2021/04/15 07:16:00;;;;;;;17.83;5.20;;;23.60;58.20;;;;;;5048960;28;20653;-75
2021/04/15 07:18:52;;;;;;;14.70;5.67;;;23.00;59.50;;;;;;5044374;28;20203;-75
2021/04/15 07:21:51;;;;;;;17.43;5.17;;;21.50;61.70;;;;;;5047501;28;20575;-75
2021/04/15 07:24:37;;;;;;;17.07;4.83;;;21.00;63.60;;;;;;5046104;28;20279;-75
2021/04/15 07:27:28;;;;;;;12.13;4.63;;;20.10;64.40;;;;;;5048028;28;20533;-75
2021/04/15 07:30:24;;;;;;;12.70;4.80;;;18.50;66.80;;;;;;5048394;28;20249;-75
2021/04/15 07:33:28;;;;;;;11.97;4.50;;;17.80;70.80;;;;;;5047804;28;20195;-75
2021/04/15 07:36:34;;;;;;;11.27;4.27;;;16.80;73.00;;;;;;5047639;28;20184;-75
2021/04/15 07:39:18;;;;;;;13.70;5.03;;;15.30;77.10;;;;;;5046005;28;20285;-75
2021/04/15 07:42:07;;;;;;;15.80;4.37;;;14.50;79.90;;;;;;5049195;28;20189;-75
2021/04/15 07:45:03;;;;;;;13.93;4.93;;;13.40;85.00;;;;;;5048087;28;20215;-75
2021/04/15 07:47:59;;;;;;;12.97;4.60;;;12.80;88.30;;;;;;5047821;28;20346;-76
2021/04/15 07:50:31;;;;;;;13.13;4.20;;;12.60;90.30;;;;;;5046845;28;20187;-76
2021/04/15 07:53:02;;;;;;;14.00;4.07;;;12.20;91.40;;;;;;5048144;28;20190;-76
2021/04/15 07:55:36;;;;;;;14.27;4.87;;;11.80;92.50;;;;;;5048810;28;20203;-76
2021/04/15 07:58:25;;;;;;;12.57;3.30;;;12.40;94.50;;;;;;5046541;28;20299;-75
2021/04/15 08:01:21;;;;;;;11.33;3.00;;;14.40;91.60;;;;;;5048706;28;20684;-75
2021/04/15 08:04:06;;;;;;;11.33;3.13;;;14.40;89.50;;;;;;5062761;28;20320;-75
2021/04/15 08:07:08;;;;;;;8.17;3.07;;;14.40;90.80;;;;;;5045598;28;20184;-76
2021/04/15 08:10:03;;;;;;;14.07;3.80;;;14.60;90.30;;;;;;5047685;28;20191;-75
2021/04/15 08:13:15;;;;;;;11.20;3.47;;;14.40;90.50;;;;;;5041031;28;20194;-76
2021/04/15 08:15:52;;;;;;;9.20;3.20;;;14.30;90.30;;;;;;5049515;28;20208;-76
2021/04/15 08:18:34;;;;;;;14.17;3.93;;;14.20;91.60;;;;;;5064630;28;20192;-77
2021/04/15 08:21:24;;;;;;;13.90;3.17;;;13.90;91.60;;;;;;5064483;28;20197;-75
2021/04/15 08:24:10;;;;;;;14.67;3.27;;;15.00;91.10;;;;;;5064455;28;20199;-76
2021/04/15 08:27:01;;;;;;;8.50;2.63;;;15.10;89.20;;;;;;5048398;28;20210;-76
2021/04/15 08:29:51;;;;;;;8.87;2.50;;;14.60;88.50;;;;;;5050168;28;20195;-75
2021/04/15 08:32:28;;;;;;;8.23;2.33;;;13.80;89.00;;;;;;5044856;28;20208;-76
2021/04/15 08:35:32;;;;;;;10.00;2.70;;;12.90;91.00;;;;;;5048359;28;20268;-77
2021/04/15 08:38:32;;;;;;;10.20;2.67;;;12.10;93.70;;;;;;5045092;28;20184;-77
2021/04/15 08:41:23;;;;;;;8.97;2.47;;;11.70;95.70;;;;;;5048446;28;20642;-76
2021/04/15 08:44:26;;;;;;;13.50;2.70;;;11.30;96.00;;;;;;5048039;28;20185;-77
2021/04/15 08:47:01;;;;;;;10.70;3.10;;;10.90;97.00;;;;;;5046059;28;20260;-77
2021/04/15 08:49:59;;;;;;;9.10;3.30;;;10.90;97.50;;;;;;5045371;28;20191;-77
2021/04/15 08:52:44;;;;;;;12.37;2.83;;;11.10;97.90;;;;;;5053457;28;20193;-77
2021/04/15 08:55:38;;;;;;;15.03;2.20;;;10.90;98.90;;;;;;5053463;28;20208;-77
2021/04/15 08:58:06;;;;;;;13.17;2.30;;;10.70;98.90;;;;;;5052392;28;20183;-77
2021/04/15 09:00:43;;;;;;;11.30;2.53;;;10.90;98.90;;;;;;5051815;28;20180;-77
2021/04/15 09:03:42;;;;;;;10.07;2.00;;;10.90;98.60;;;;;;5051588;28;20180;-77
2021/04/15 09:06:17;;;;;;;14.63;2.43;;;11.30;97.80;;;;;;5050436;28;20567;-77
2021/04/15 09:09:13;;;;;;;11.57;2.20;;;11.50;98.30;;;;;;5051584;28;20317;-77
2021/04/15 09:11:52;;;;;;;5.23;1.43;;;11.90;97.40;;;;;;5067163;28;20183;-77
2021/04/15 09:14:35;;;;;;;5.80;1.30;;;12.50;95.00;;;;;;5052583;28;20211;-77
2021/04/15 09:17:09;;;;;;;6.63;1.57;;;12.50;93.50;;;;;;5052597;28;20187;-77
2021/04/15 09:19:45;;;;;;;9.90;1.93;;;12.20;94.40;;;;;;5047904;28;20641;-77
2021/04/15 09:22:32;;;;;;;8.93;2.10;;;11.80;93.90;;;;;;5050407;28;20198;-77
2021/04/15 09:25:22;;;;;;;7.80;1.67;;;11.30;94.90;;;;;;5046787;28;20679;-77
2021/04/15 09:28:08;;;;;;;12.10;1.90;;;11.10;96.50;;;;;;5052503;28;20202;-77
2021/04/15 09:31:08;;;;;;;8.67;2.10;;;11.10;97.10;;;;;;5047402;28;21966;-76
2021/04/15 09:33:59;;;;;;;9.07;2.30;;;10.90;97.90;;;;;;5052628;28;20222;-76
2021/04/15 09:36:42;;;;;;;9.13;2.10;;;11.20;99.70;;;;;;5052607;28;20237;-77
2021/04/15 09:39:36;;;;;;;11.83;2.60;;;11.30;98.50;;;;;;5052100;28;20191;-77
2021/04/15 09:42:05;;;;;;;10.10;2.13;;;11.90;98.00;;;;;;5051728;28;20254;-76
2021/04/15 09:44:50;;;;;;;5.07;2.03;;;13.70;94.30;;;;;;5051728;28;20244;-76
2021/04/15 09:47:39;;;;;;;9.63;2.17;;;14.10;93.50;;;;;;5051616;28;20646;-75
2021/04/15 09:50:20;;;;;;;9.43;2.10;;;14.20;93.60;;;;;;5049867;28;20195;-75
2021/04/15 09:53:03;;;;;;;16.10;2.50;;;14.00;92.10;;;;;;5081423;28;20235;-75
2021/04/15 09:55:48;;;;;;;11.20;2.77;;;13.90;92.80;;;;;;5053018;28;20656;-75
2021/04/15 09:58:55;;;;;;;8.10;2.30;;;14.20;92.50;;;;;;5064744;28;20205;-75
2021/04/15 10:01:34;;;;;;;9.10;2.30;;;14.10;90.50;;;;;;5048682;28;20211;-74
2021/04/15 10:04:05;;;;;;;10.47;2.30;;;13.80;92.50;;;;;;5051349;28;20226;-75
2021/04/15 10:06:37;;;;;;;15.00;2.80;;;13.50;91.00;;;;;;5061592;28;20835;-75
2021/04/15 10:09:30;;;;;;;8.93;2.60;;;13.30;92.40;;;;;;5050790;28;20277;-75
2021/04/15 10:12:22;;;;;;;13.07;2.30;;;13.50;92.90;;;;;;5052578;28;20194;-75
2021/04/15 10:15:05;;;;;;;10.57;2.43;;;14.80;91.80;;;;;;5048858;28;20224;-75
2021/04/15 10:17:37;;;;;;;7.63;1.93;;;15.00;90.40;;;;;;5051637;28;20183;-75
2021/04/15 10:20:03;;;;;;;14.23;2.63;;;14.60;90.10;;;;;;5050469;28;20194;-75
2021/04/15 10:22:37;;;;;;;13.63;3.10;;;13.40;91.80;;;;;;5049673;28;20198;-75
2021/04/15 10:25:22;;;;;;;8.00;3.67;;;12.00;97.10;;;;;;5049110;28;20684;-74
2021/04/15 10:28:17;;;;;;;13.37;4.57;;;11.10;99.90;;;;;;5050898;28;20695;-74
2021/04/15 10:31:04;;;;;;;14.13;5.30;;;9.80;99.90;;;;;;5049169;28;20213;-75
2021/04/15 10:34:06;;;;;;;11.47;5.83;;;9.70;99.90;;;;;;5051545;28;20645;-74
2021/04/15 10:36:50;;;;;;;10.60;5.00;;;9.40;99.90;;;;;;5082850;28;20194;-74
2021/04/15 10:39:44;;;;;;;10.07;4.63;;;9.60;99.90;;;;;;5050620;28;20270;-75
2021/04/15 10:42:16;;;;;;;10.13;3.60;;;9.70;99.90;;;;;;5045135;28;20284;-75
2021/04/15 10:45:16;;;;;;;11.20;3.90;;;9.70;99.90;;;;;;5050414;28;20190;-75
2021/04/15 10:47:51;;;;;;;6.73;3.07;;;9.90;99.90;;;;;;5048952;28;20186;-75
2021/04/15 10:50:41;;;;;;;8.10;3.47;;;10.20;99.90;;;;;;5050929;28;20204;-75
2021/04/15 10:53:11;;;;;;;8.57;3.20;;;10.40;99.90;;;;;;5049508;28;20210;-75
2021/04/15 10:55:49;;;;;;;8.43;3.87;;;10.90;99.90;;;;;;5062816;28;20197;-75
2021/04/15 10:58:31;;;;;;;8.37;3.40;;;11.30;99.90;;;;;;5041686;28;20278;-75
2021/04/15 11:01:18;;;;;;;8.70;2.97;;;11.80;99.90;;;;;;5047772;28;20200;-75
2021/04/15 11:03:45;;;;;;;7.97;3.63;;;12.40;99.90;;;;;;5041313;28;20273;-76
2021/04/15 11:06:34;;;;;;;7.37;3.50;;;13.80;99.90;;;;;;5047804;28;20717;-76
2021/04/15 11:09:28;;;;;;;8.63;3.57;;;14.40;99.90;;;;;;5078978;28;20647;-75
2021/04/15 11:12:14;;;;;;;9.73;3.67;;;14.60;99.90;;;;;;5045929;28;20186;-75
2021/04/15 11:14:54;;;;;;;7.00;3.63;;;15.90;99.90;;;;;;5048359;28;20180;-75
2021/04/15 11:17:50;;;;;;;6.93;3.00;;;17.70;98.90;;;;;;5049725;28;20195;-76
2021/04/15 11:20:32;;;;;;;8.23;2.93;;;17.50;97.30;;;;;;5050661;28;20206;-77
2021/04/15 11:23:09;;;;;;;6.10;2.70;;;18.00;96.10;;;;;;5047909;28;20245;-75
2021/04/15 11:25:36;;;;;;;6.63;2.73;;;18.40;93.60;;;;;;5050391;28;20746;-75
2021/04/15 11:28:10;;;;;;;7.23;2.50;;;20.30;88.50;;;;;;5048781;28;20302;-75
2021/04/15 11:30:46;;;;;;;5.43;2.13;;;22.50;85.60;;;;;;5047165;28;20188;-76
2021/04/15 11:33:29;;;;;;;4.73;2.03;;;22.60;81.40;;;;;;5049898;28;20171;-73
2021/04/15 11:36:14;;;;;;;5.80;2.40;;;23.60;71.30;;;;;;5046768;28;20214;-73
2021/04/15 11:38:43;;;;;;;5.67;2.40;;;25.10;62.10;;;;;;5044490;28;20658;-74
2021/04/15 11:41:22;;;;;;;6.00;2.20;;;23.60;62.20;;;;;;5048053;28;20204;-74
2021/04/15 11:44:00;;;;;;;6.13;2.33;;;21.60;64.10;;;;;;5061920;28;20190;-75
2021/04/15 11:46:53;;;;;;;6.83;2.27;;;19.70;67.40;;;;;;5048407;28;20194;-74
2021/04/15 11:49:18;;;;;;;5.77;2.23;;;18.50;67.40;;;;;;5048191;28;20694;-75
2021/04/15 11:52:07;;;;;;;9.13;2.90;;;17.20;70.50;;;;;;5049827;28;20188;-74
2021/04/15 11:54:34;;;;;;;7.60;2.60;;;15.80;74.20;;;;;;5049558;28;20186;-74
2021/04/15 11:57:18;;;;;;;8.37;2.97;;;14.70;78.70;;;;;;5048367;28;20193;-74
2021/04/15 11:59:56;;;;;;;5.63;2.43;;;13.90;82.60;;;;;;5039634;28;20214;-74
2021/04/15 12:02:45;;;;;;;6.93;2.50;;;13.20;83.80;;;;;;5044502;28;20600;-74
2021/04/15 12:05:19;;;;;;;6.37;2.53;;;12.80;84.50;;;;;;5044964;28;20224;-74
2021/04/15 12:07:53;;;;;;;6.13;2.30;;;13.70;86.00;;;;;;5044999;28;20282;-74
2021/04/15 12:10:23;;;;;;;8.00;2.50;;;15.10;79.30;;;;;;5048681;28;20198;-74
2021/04/15 12:12:53;;;;;;;8.70;2.07;;;15.20;78.60;;;;;;5049241;28;20188;-74
2021/04/15 12:15:27;;;;;;;6.23;1.97;;;15.60;75.50;;;;;;5050334;28;20204;-74
2021/04/15 12:18:36;;;;;;;7.07;2.20;;;15.70;77.20;;;;;;5047489;28;20202;-74
2021/04/15 12:21:13;;;;;;;5.43;1.60;;;16.10;73.90;;;;;;5047997;28;20665;-74
2021/04/15 12:24:04;;;;;;;6.10;2.23;;;16.80;71.80;;;;;;5046447;28;20208;-74
2021/04/15 12:26:44;;;;;;;6.97;1.60;;;16.90;72.60;;;;;;5060618;28;20182;-74
2021/04/15 12:29:16;;;;;;;6.17;1.77;;;17.40;65.80;;;;;;5048338;28;20189;-74
2021/04/15 12:31:51;;;;;;;4.57;1.70;;;17.20;63.40;;;;;;5048168;28;20191;-74
2021/04/15 12:34:38;;;;;;;6.00;2.10;;;17.10;65.40;;;;;;5047348;28;20817;-75
2021/04/15 12:37:27;;;;;;;6.07;2.40;;;17.20;63.80;;;;;;5047618;28;20540;-74
2021/04/15 12:40:13;;;;;;;5.17;2.10;;;16.40;67.90;;;;;;5044021;28;20187;-74
2021/04/15 12:42:42;;;;;;;9.40;2.40;;;15.80;72.60;;;;;;5047429;28;20181;-74
2021/04/15 12:45:26;;;;;;;6.67;2.27;;;15.50;72.10;;;;;;5048601;28;20212;-75
2021/04/15 12:47:55;;;;;;;7.97;2.43;;;15.00;74.20;;;;;;5048662;28;20188;-75
2021/04/15 12:50:21;;;;;;;7.93;2.60;;;14.40;76.30;;;;;;5049087;28;20183;-75
2021/04/15 12:52:49;;;;;;;9.90;3.17;;;13.60;78.10;;;;;;5046717;28;20550;-75
2021/04/15 12:55:19;;;;;;;9.63;2.60;;;12.90;84.40;;;;;;5047035;28;20182;-74
2021/04/15 12:57:45;;;;;;;8.80;3.00;;;12.40;83.90;;;;;;5045131;28;20576;-75
2021/04/15 13:00:16;;;;;;;6.23;2.40;;;11.60;89.90;;;;;;5044997;28;20195;-75
2021/04/15 13:02:43;;;;;;;13.77;3.57;;;11.20;91.50;;;;;;5045207;28;20196;-75
2021/04/15 13:05:23;;;;;;;18.87;7.67;;;11.10;92.00;;;;;;5048248;28;20894;-75
2021/04/15 13:07:49;;;;;;;5.03;2.30;;;11.00;92.50;;;;;;5044151;28;20252;-75
2021/04/15 13:10:15;;;;;;;5.73;2.27;;;11.00;90.60;;;;;;5048006;28;20651;-75
2021/04/15 13:12:46;;;;;;;9.33;2.40;;;11.00;90.20;;;;;;5047197;28;20235;-75
2021/04/15 13:15:23;;;;;;;5.87;2.00;;;11.20;91.40;;;;;;5048327;28;20675;-74
2021/04/15 13:17:56;;;;;;;5.50;2.07;;;11.30;88.90;;;;;;5050088;28;20192;-75
2021/04/15 13:20:24;;;;;;;6.03;1.90;;;11.20;86.80;;;;;;5049237;28;20201;-75
2021/04/15 13:23:07;;;;;;;6.37;2.00;;;11.30;87.70;;;;;;5046465;28;20201;-75
2021/04/15 13:25:53;;;;;;;7.80;2.30;;;11.30;85.20;;;;;;5047787;28;20215;-75
2021/04/15 13:28:25;;;;;;;8.73;1.90;;;11.40;84.60;;;;;;5047266;28;20233;-75
2021/04/15 13:30:54;;;;;;;5.10;1.80;;;11.60;84.20;;;;;;5032666;28;20180;-75
2021/04/15 13:34:21;;;;;;;5.67;1.90;;;11.80;82.70;;;;;;5047351;28;20189;-74
2021/04/15 13:36:48;;;;;;;6.30;2.10;;;11.60;82.80;;;;;;5024291;28;20190;-75
2021/04/15 13:39:37;;;;;;;8.00;2.00;;;11.60;86.30;;;;;;5019912;28;20222;-76
2021/04/15 13:42:20;;;;;;;6.70;2.20;;;11.50;86.30;;;;;;5043188;28;20529;-76
2021/04/15 13:44:56;;;;;;;5.50;2.03;;;11.70;87.90;;;;;;5050704;28;20212;-75
2021/04/15 13:47:43;;;;;;;7.50;2.07;;;11.80;87.30;;;;;;5051645;28;20656;-74
2021/04/15 13:50:10;;;;;;;9.33;2.00;;;11.80;84.80;;;;;;5051986;28;20180;-74